Time;durP1;ratioP1;P1;durP2;ratioP2;P2;SDS_P1;SDS_P2;PMS_P1;PMS_P2;Temp;Humidity;BMP_temperature;BMP_pressure;BME280_temperature;BME280_humidity;BME280_pressure;Samples;Min_cycle;Max_cycle;Signal;HPM_P1;HPM_P2
2021/12/26 00:00:11;;;;;;;7.63;6.83;;;;;;;6.83;84.69;94621.09;5074199;28;20208;-79
2021/12/26 00:02:38;;;;;;;7.97;7.17;;;;;;;6.93;83.66;94617.28;5072058;28;20193;-78
2021/12/26 00:05:05;;;;;;;8.13;6.83;;;;;;;6.97;82.83;94611.81;5073113;28;20217;-78
2021/12/26 00:07:33;;;;;;;7.23;6.53;;;;;;;6.97;82.30;94615.16;5070446;28;20221;-79
2021/12/26 00:10:00;;;;;;;7.90;7.10;;;;;;;6.99;82.06;94607.31;5053642;28;20207;-79
2021/12/26 00:12:26;;;;;;;7.03;6.33;;;;;;;6.99;82.27;94610.66;5058958;28;20295;-78
2021/12/26 00:14:53;;;;;;;6.47;5.87;;;;;;;7.00;81.90;94616.56;5073807;28;20254;-77
2021/12/26 00:17:19;;;;;;;7.63;6.83;;;;;;;6.87;82.30;94609.53;5069844;28;20232;-78
2021/12/26 00:19:46;;;;;;;7.50;6.80;;;;;;;6.80;83.05;94614.56;5053599;28;20201;-78
2021/12/26 00:22:12;;;;;;;6.90;6.20;;;;;;;6.89;83.14;94617.81;5055878;28;20217;-78
2021/12/26 00:24:40;;;;;;;7.50;6.80;;;;;;;6.88;83.58;94606.00;5067298;28;20201;-78
2021/12/26 00:27:06;;;;;;;7.17;6.47;;;;;;;6.76;83.82;94604.84;5054512;28;20221;-78
2021/12/26 00:29:33;;;;;;;8.90;7.97;;;;;;;6.56;83.96;94610.47;5073910;28;20197;-78
2021/12/26 00:31:59;;;;;;;7.10;6.40;;;;;;;6.67;84.41;94605.91;5073622;28;20201;-78
2021/12/26 00:34:26;;;;;;;7.80;6.90;;;;;;;6.79;84.10;94604.50;5052522;28;20206;-78
2021/12/26 00:36:53;;;;;;;7.43;6.67;;;;;;;6.75;83.24;94608.38;5064236;28;20224;-78
2021/12/26 00:39:19;;;;;;;7.73;6.90;;;;;;;6.75;82.82;94610.94;5054251;28;20197;-79
2021/12/26 00:41:47;;;;;;;12.70;7.47;;;;;;;6.76;82.56;94607.41;5062233;28;20197;-78
2021/12/26 00:44:14;;;;;;;8.80;7.30;;;;;;;6.79;82.58;94607.84;5072710;28;20201;-79
2021/12/26 00:46:40;;;;;;;8.17;7.17;;;;;;;6.87;82.99;94610.31;5068937;28;20239;-79
2021/12/26 00:49:06;;;;;;;7.73;6.93;;;;;;;6.69;82.88;94619.31;5074946;28;20196;-78
2021/12/26 00:51:33;;;;;;;9.90;8.33;;;;;;;6.35;84.79;94615.47;5066385;28;20211;-78
2021/12/26 00:53:59;;;;;;;8.80;7.90;;;;;;;6.36;85.96;94611.16;5058887;28;20221;-78
2021/12/26 00:56:26;;;;;;;11.20;8.53;;;;;;;6.27;85.95;94622.44;5056449;28;20221;-79
2021/12/26 00:58:54;;;;;;;9.57;8.20;;;;;;;6.42;85.55;94611.28;5071113;28;20231;-78
2021/12/26 01:01:20;;;;;;;8.80;7.90;;;;;;;6.35;85.52;94604.50;5075821;28;20200;-79
2021/12/26 01:03:47;;;;;;;9.60;8.10;;;;;;;6.31;86.30;94609.16;5056833;28;20212;-78
2021/12/26 01:06:14;;;;;;;9.67;8.10;;;;;;;6.29;86.10;94605.97;5056402;28;20223;-78
2021/12/26 01:08:42;;;;;;;10.37;8.03;;;;;;;6.18;87.11;94614.03;5056716;28;20236;-78
2021/12/26 01:11:17;;;;;;;10.50;8.70;;;;;;;6.18;88.06;94614.03;5056655;28;20208;-79
2021/12/26 01:13:46;;;;;;;9.40;7.80;;;;;;;6.34;87.62;94616.47;5074304;28;20755;-78
2021/12/26 01:16:16;;;;;;;9.17;8.27;;;;;;;6.31;86.58;94619.38;5075629;28;20256;-78
2021/12/26 01:18:46;;;;;;;9.97;8.77;;;;;;;6.29;86.48;94615.41;5057597;28;20232;-78
2021/12/26 01:21:20;;;;;;;9.30;8.40;;;;;;;6.43;86.43;94617.97;5056232;28;20271;-79
2021/12/26 01:23:50;;;;;;;9.17;8.27;;;;;;;6.52;85.78;94626.38;5073817;28;20207;-78
2021/12/26 01:26:17;;;;;;;9.13;8.23;;;;;;;6.56;85.38;94628.38;5076310;28;20315;-78
2021/12/26 01:28:43;;;;;;;10.33;8.90;;;;;;;6.33;85.49;94625.13;5057400;28;20229;-78
2021/12/26 01:31:10;;;;;;;10.53;8.73;;;;;;;6.43;85.79;94628.19;5056018;28;20296;-79
2021/12/26 01:33:38;;;;;;;10.10;8.40;;;;;;;6.50;85.44;94628.31;5071853;28;20216;-78
2021/12/26 01:36:05;;;;;;;9.33;8.43;;;;;;;6.52;85.30;94626.38;5081711;28;20228;-78
2021/12/26 01:38:32;;;;;;;10.07;8.83;;;;;;;6.55;84.84;94636.22;5063318;28;20225;-78
2021/12/26 01:41:01;;;;;;;11.57;9.47;;;;;;;6.31;85.16;94637.28;5055623;28;20202;-78
2021/12/26 01:43:30;;;;;;;17.40;10.13;;;;;;;6.09;87.04;94632.97;5060242;28;20276;-79
2021/12/26 01:45:57;;;;;;;10.60;9.40;;;;;;;5.91;88.36;94642.72;5055126;28;20225;-78
2021/12/26 01:48:24;;;;;;;11.53;10.33;;;;;;;5.84;89.08;94638.25;5069510;28;20236;-78
2021/12/26 01:50:53;;;;;;;11.40;10.20;;;;;;;5.85;90.34;94634.72;5075306;28;20196;-78
2021/12/26 01:53:23;;;;;;;10.73;9.57;;;;;;;5.93;89.71;94631.34;5074458;28;20216;-78
2021/12/26 01:55:50;;;;;;;10.37;9.27;;;;;;;5.98;88.45;94626.50;5057112;28;20279;-78
2021/12/26 01:58:20;;;;;;;14.30;9.97;;;;;;;6.01;87.68;94618.50;5067805;28;20224;-78
2021/12/26 02:00:52;;;;;;;12.97;10.10;;;;;;;5.84;89.79;94622.91;5075336;28;20197;-79
2021/12/26 02:03:19;;;;;;;10.33;9.23;;;;;;;5.98;89.20;94620.59;5061700;28;20197;-78
2021/12/26 02:05:45;;;;;;;14.90;10.13;;;;;;;6.05;87.88;94618.97;5054801;28;20340;-78
2021/12/26 02:08:14;;;;;;;11.70;9.77;;;;;;;5.86;89.20;94607.44;5056012;28;20217;-78
2021/12/26 02:10:40;;;;;;;11.00;9.83;;;;;;;5.86;89.07;94615.88;5071867;28;20207;-78
2021/12/26 02:13:07;;;;;;;11.53;10.33;;;;;;;5.86;89.34;94615.09;5063741;28;20224;-78
2021/12/26 02:15:34;;;;;;;11.63;10.23;;;;;;;5.79;89.66;94614.97;5054861;28;20228;-78
2021/12/26 02:18:00;;;;;;;11.73;10.50;;;;;;;5.87;89.80;94614.91;5065052;28;20228;-78
2021/12/26 02:20:37;;;;;;;11.30;10.10;;;;;;;6.05;88.57;94609.53;5064091;28;20193;-78
2021/12/26 02:23:10;;;;;;;11.13;9.90;;;;;;;6.16;87.74;94615.97;5054967;28;20193;-78
2021/12/26 02:28:35;;;;;;;11.83;9.27;;;;;;;6.27;85.64;94612.22;5023644;28;20234;-77
2021/12/26 02:31:01;;;;;;;11.80;10.03;;;;;;;6.22;86.19;94607.63;5012908;28;20202;-78
2021/12/26 02:33:28;;;;;;;10.50;9.40;;;;;;;6.14;85.80;94603.41;5047461;28;20232;-78
2021/12/26 02:35:56;;;;;;;11.27;9.63;;;;;;;5.87;87.65;94602.16;5064449;28;20225;-78
2021/12/26 02:38:23;;;;;;;12.20;9.57;;;;;;;5.81;88.77;94602.03;5061409;28;20226;-77
2021/12/26 02:40:51;;;;;;;10.73;9.47;;;;;;;5.81;88.96;94595.16;5054776;28;20205;-78
2021/12/26 02:43:18;;;;;;;9.87;8.87;;;;;;;5.87;87.76;94596.25;5064787;28;20193;-78
2021/12/26 02:45:45;;;;;;;10.23;9.03;;;;;;;5.93;88.06;94594.81;5067954;28;20577;-78
2021/12/26 02:48:12;;;;;;;10.70;9.23;;;;;;;5.94;88.26;94597.19;5071787;28;20295;-78
2021/12/26 02:50:42;;;;;;;9.37;8.20;;;;;;;5.83;88.52;94600.91;5073268;28;20205;-76
2021/12/26 02:53:13;;;;;;;9.80;8.73;;;;;;;5.61;90.23;94608.56;5073245;28;20592;-78
2021/12/26 02:55:41;;;;;;;9.80;8.80;;;;;;;5.62;90.35;94605.03;5073559;28;20235;-77
2021/12/26 02:58:09;;;;;;;10.13;9.03;;;;;;;5.64;90.48;94605.66;5072300;28;20236;-77
2021/12/26 03:00:40;;;;;;;12.60;9.00;;;;;;;5.68;89.98;94602.59;5075081;28;20295;-78
2021/12/26 03:03:07;;;;;;;10.43;8.77;;;;;;;5.55;90.43;94608.28;5069774;28;20185;-78
2021/12/26 03:05:37;;;;;;;10.83;9.70;;;;;;;5.52;91.81;94607.81;5074160;28;20308;-78
2021/12/26 03:08:04;;;;;;;10.53;9.43;;;;;;;5.49;91.67;94608.16;5057968;28;20228;-77
2021/12/26 03:10:33;;;;;;;10.80;9.27;;;;;;;5.50;92.09;94615.66;5074847;28;20212;-78
2021/12/26 03:13:03;;;;;;;11.20;9.67;;;;;;;5.58;91.34;94614.78;5055994;28;20193;-78
2021/12/26 03:15:31;;;;;;;9.97;8.90;;;;;;;5.68;90.94;94615.38;5054397;28;20225;-77
2021/12/26 03:17:59;;;;;;;11.13;9.30;;;;;;;5.75;90.07;94610.38;5068006;28;20224;-77
2021/12/26 03:20:28;;;;;;;10.47;9.37;;;;;;;5.88;89.34;94611.44;5074466;28;20235;-77
2021/12/26 03:22:55;;;;;;;11.00;9.43;;;;;;;5.87;89.06;94614.13;5054205;28;20212;-78
2021/12/26 03:25:23;;;;;;;10.43;9.30;;;;;;;5.82;89.65;94614.63;5053333;28;20257;-78
2021/12/26 03:27:52;;;;;;;10.20;9.10;;;;;;;5.93;89.06;94610.91;5057180;28;20224;-78
2021/12/26 03:30:21;;;;;;;10.47;9.37;;;;;;;6.05;88.28;94614.66;5072569;28;20687;-79
2021/12/26 03:32:48;;;;;;;10.53;9.43;;;;;;;5.88;88.00;94616.53;5073149;28;20193;-78
2021/12/26 03:35:15;;;;;;;11.37;10.17;;;;;;;5.68;89.67;94623.03;5060458;28;20218;-78
2021/12/26 03:37:43;;;;;;;11.73;9.40;;;;;;;5.73;90.25;94619.97;5068592;28;20235;-78
2021/12/26 03:40:10;;;;;;;10.73;9.40;;;;;;;5.82;90.02;94618.94;5072194;28;20690;-78
2021/12/26 03:42:37;;;;;;;10.77;9.67;;;;;;;5.88;89.41;94619.09;5073505;28;20228;-81
2021/12/26 03:45:08;;;;;;;10.97;9.80;;;;;;;5.93;88.88;94625.44;5062295;28;20221;-81
2021/12/26 03:47:35;;;;;;;11.77;9.50;;;;;;;5.99;88.42;94627.31;5067794;28;20220;-81
2021/12/26 03:50:03;;;;;;;10.00;9.00;;;;;;;6.08;88.58;94624.53;5063265;28;20676;-81
2021/12/26 03:52:29;;;;;;;11.27;9.90;;;;;;;6.06;87.96;94618.78;5070722;28;20204;-81
2021/12/26 03:54:56;;;;;;;10.23;9.13;;;;;;;6.09;86.97;94607.44;5064899;28;20604;-81
2021/12/26 03:57:22;;;;;;;10.67;9.57;;;;;;;6.13;87.14;94609.47;5065672;28;20228;-81
2021/12/26 03:59:49;;;;;;;10.77;9.70;;;;;;;5.93;87.05;94603.25;5066492;28;20205;-81
2021/12/26 04:02:17;;;;;;;11.10;9.43;;;;;;;5.87;88.03;94607.25;5058411;28;20683;-81
2021/12/26 04:04:44;;;;;;;10.53;9.43;;;;;;;5.95;88.19;94605.66;5072596;28;20197;-81
2021/12/26 04:07:12;;;;;;;11.23;10.13;;;;;;;6.03;87.63;94603.00;5060701;28;20240;-81
2021/12/26 04:09:38;;;;;;;10.77;9.67;;;;;;;6.17;86.99;94612.47;5053488;28;20193;-81
2021/12/26 04:12:06;;;;;;;10.57;9.47;;;;;;;6.12;86.38;94618.09;5053028;28;20208;-81
2021/12/26 04:14:32;;;;;;;11.07;9.87;;;;;;;6.19;86.54;94620.75;5055274;28;20225;-81
2021/12/26 04:16:59;;;;;;;11.70;10.07;;;;;;;6.13;86.25;94624.81;5061980;28;20249;-78
2021/12/26 04:19:27;;;;;;;11.03;9.80;;;;;;;6.08;86.39;94633.94;5053743;28;20206;-79
2021/12/26 04:21:53;;;;;;;11.30;9.63;;;;;;;6.11;86.65;94623.38;5072878;28;20207;-78
2021/12/26 04:24:20;;;;;;;10.83;9.73;;;;;;;6.22;86.26;94630.63;5054276;28;20200;-78
2021/12/26 04:26:46;;;;;;;11.40;10.20;;;;;;;6.09;86.01;94622.75;5060955;28;20700;-79
2021/12/26 04:29:13;;;;;;;11.23;9.70;;;;;;;5.89;86.67;94627.56;5073429;28;20196;-78
2021/12/26 04:31:39;;;;;;;11.87;9.87;;;;;;;6.02;86.71;94624.41;5072809;28;20803;-78
2021/12/26 04:34:06;;;;;;;10.70;9.60;;;;;;;6.15;86.62;94629.75;5073122;28;20695;-79
2021/12/26 04:36:34;;;;;;;11.37;10.13;;;;;;;6.20;85.61;94635.13;5063237;28;20292;-78
2021/12/26 04:39:01;;;;;;;11.20;10.00;;;;;;;6.28;85.30;94632.50;5055245;28;20228;-78
2021/12/26 04:41:27;;;;;;;11.43;10.07;;;;;;;6.30;84.17;94629.78;5073173;28;20201;-78
2021/12/26 04:43:54;;;;;;;11.03;9.80;;;;;;;6.26;84.60;94628.53;5071325;28;20201;-78
2021/12/26 04:46:20;;;;;;;11.07;9.87;;;;;;;6.30;84.75;94629.78;5059929;28;20220;-78
2021/12/26 04:48:46;;;;;;;11.03;9.60;;;;;;;6.34;84.45;94620.78;5071947;28;20722;-78
2021/12/26 04:51:14;;;;;;;11.83;9.50;;;;;;;6.37;84.31;94631.44;5059218;28;20193;-79
2021/12/26 04:53:43;;;;;;;11.77;10.23;;;;;;;6.42;84.01;94629.16;5052777;28;20222;-78
2021/12/26 04:56:10;;;;;;;11.80;9.90;;;;;;;6.35;83.45;94630.81;5058759;28;20227;-78
2021/12/26 04:58:36;;;;;;;11.30;9.53;;;;;;;6.36;83.53;94632.41;5072471;28;20280;-78
2021/12/26 05:01:04;;;;;;;10.50;9.50;;;;;;;6.36;83.41;94636.72;5054427;28;20259;-78
2021/12/26 05:03:31;;;;;;;11.57;9.70;;;;;;;6.39;83.25;94637.19;5052754;28;20209;-78
2021/12/26 05:05:58;;;;;;;11.67;9.90;;;;;;;6.43;82.97;94638.44;5065141;28;20229;-79
2021/12/26 05:08:24;;;;;;;12.70;9.90;;;;;;;6.39;82.84;94629.50;5052777;28;20225;-78
2021/12/26 05:10:52;;;;;;;10.73;9.57;;;;;;;6.42;82.59;94641.94;5054493;28;20209;-78
2021/12/26 05:13:19;;;;;;;11.93;10.00;;;;;;;6.18;83.29;94642.16;5052746;28;20576;-79
2021/12/26 05:15:45;;;;;;;14.03;10.70;;;;;;;5.92;84.45;94637.44;5064695;28;20229;-78
2021/12/26 05:18:12;;;;;;;11.83;9.87;;;;;;;5.85;85.18;94633.94;5052250;28;20229;-78
2021/12/26 05:20:38;;;;;;;12.20;9.53;;;;;;;5.61;86.53;94639.97;5067812;28;20201;-78
2021/12/26 05:23:05;;;;;;;16.73;10.33;;;;;;;5.46;88.10;94639.13;5092523;28;20196;-78
2021/12/26 05:25:32;;;;;;;12.43;10.47;;;;;;;5.35;89.40;94637.75;5078612;28;20235;-78
2021/12/26 05:28:00;;;;;;;12.33;10.23;;;;;;;5.39;89.87;94631.34;5052119;28;20236;-78
2021/12/26 05:30:30;;;;;;;12.43;9.90;;;;;;;5.41;90.20;94641.38;5063816;28;20311;-78
2021/12/26 05:32:56;;;;;;;15.53;11.30;;;;;;;5.24;91.11;94630.47;5055402;28;20213;-81
2021/12/26 05:35:24;;;;;;;13.87;10.87;;;;;;;5.19;91.99;94633.53;5066700;28;20228;-81
2021/12/26 05:37:50;;;;;;;14.23;10.70;;;;;;;5.27;92.16;94630.13;5057700;28;20639;-81
2021/12/26 05:40:17;;;;;;;13.23;10.23;;;;;;;5.35;91.69;94634.41;5058490;28;20201;-81
2021/12/26 05:42:45;;;;;;;14.47;11.37;;;;;;;5.31;91.58;94639.06;5057545;28;20205;-81
2021/12/26 05:45:13;;;;;;;12.00;10.60;;;;;;;5.40;91.23;94642.34;5071968;28;20217;-81
2021/12/26 05:47:41;;;;;;;13.27;10.53;;;;;;;5.54;90.49;94641.66;5059599;28;20287;-81
2021/12/26 05:50:11;;;;;;;12.53;10.63;;;;;;;5.62;89.89;94641.56;5071120;28;20192;-81
2021/12/26 05:52:37;;;;;;;14.03;10.10;;;;;;;5.65;89.77;94648.09;5059432;28;20197;-81
2021/12/26 05:55:05;;;;;;;12.00;9.73;;;;;;;5.65;89.40;94643.78;5069118;28;20227;-81
2021/12/26 05:57:32;;;;;;;12.93;10.43;;;;;;;5.79;88.92;94639.72;5060428;28;20221;-81
2021/12/26 05:59:58;;;;;;;15.07;10.53;;;;;;;5.84;88.23;94637.44;5068688;28;20396;-80
2021/12/26 06:02:26;;;;;;;12.67;10.33;;;;;;;5.94;87.67;94640.63;5077127;28;20205;-81
2021/12/26 06:04:53;;;;;;;11.63;10.17;;;;;;;6.03;87.14;94631.91;5066543;28;20693;-81
2021/12/26 06:07:19;;;;;;;13.00;9.27;;;;;;;5.94;86.90;94639.81;5072632;28;20224;-81
2021/12/26 06:09:46;;;;;;;10.90;9.60;;;;;;;5.94;87.15;94638.06;5072167;28;20193;-81
2021/12/26 06:12:12;;;;;;;11.87;9.80;;;;;;;5.94;87.27;94642.38;5057612;28;20201;-82
2021/12/26 06:14:39;;;;;;;11.90;9.63;;;;;;;6.00;87.46;94634.78;5068773;28;20225;-81
2021/12/26 06:17:05;;;;;;;11.17;9.63;;;;;;;5.83;87.46;94639.22;5066904;28;20327;-81
2021/12/26 06:19:33;;;;;;;11.70;8.90;;;;;;;5.85;87.74;94641.59;5070319;28;20192;-81
2021/12/26 06:21:59;;;;;;;11.67;9.17;;;;;;;5.70;88.60;94633.88;5060676;28;20189;-81
2021/12/26 06:24:26;;;;;;;11.50;9.23;;;;;;;5.64;89.92;94642.22;5076602;28;20576;-81
2021/12/26 06:26:53;;;;;;;9.93;8.20;;;;;;;5.56;89.33;94644.81;5065439;28;20221;-81
2021/12/26 06:29:20;;;;;;;10.43;8.20;;;;;;;5.41;90.30;94649.03;5064191;28;20196;-81
2021/12/26 06:31:46;;;;;;;9.83;7.37;;;;;;;5.45;90.12;94650.28;5074612;28;20683;-81
2021/12/26 06:34:13;;;;;;;8.90;7.90;;;;;;;5.51;89.40;94652.19;5074425;28;20691;-81
2021/12/26 06:36:41;;;;;;;9.00;7.97;;;;;;;5.40;90.07;94650.00;5055437;28;20237;-78
2021/12/26 06:39:07;;;;;;;9.30;8.03;;;;;;;5.43;90.10;94658.13;5057101;28;20197;-81
2021/12/26 06:41:34;;;;;;;8.77;7.53;;;;;;;5.31;90.21;94662.03;5067352;28;20192;-81
2021/12/26 06:44:01;;;;;;;8.90;7.60;;;;;;;5.37;90.26;94656.25;5068123;28;20204;-81
2021/12/26 06:46:28;;;;;;;8.57;7.23;;;;;;;5.36;90.96;94659.78;5056226;28;20221;-81
2021/12/26 06:48:55;;;;;;;8.47;7.27;;;;;;;5.48;89.71;94655.88;5074486;28;20239;-81
2021/12/26 06:51:21;;;;;;;9.33;7.90;;;;;;;5.57;88.92;94656.63;5080779;28;20216;-81
2021/12/26 06:53:49;;;;;;;8.50;7.23;;;;;;;5.51;89.90;94659.84;5088287;28;20201;-78
2021/12/26 06:56:15;;;;;;;8.10;7.03;;;;;;;5.46;90.38;94664.66;5074586;28;20225;-79
2021/12/26 06:58:42;;;;;;;7.93;6.90;;;;;;;5.30;88.60;94665.53;5069654;28;20229;-78
2021/12/26 07:01:10;;;;;;;7.40;6.60;;;;;;;5.36;89.65;94671.72;5054010;28;20229;-78
2021/12/26 07:03:36;;;;;;;7.07;6.30;;;;;;;5.38;89.78;94667.25;5057827;28;20193;-78
2021/12/26 07:06:03;;;;;;;8.10;6.47;;;;;;;5.48;95.47;94670.38;5073898;28;20593;-77
2021/12/26 07:08:29;;;;;;;8.03;6.47;;;;;;;5.90;100.00;94670.00;5071820;28;20229;-77
2021/12/26 07:10:59;;;;;;;7.03;6.30;;;;;;;6.16;91.31;94670.44;5067778;28;20194;-78
2021/12/26 07:13:25;;;;;;;7.50;6.73;;;;;;;6.17;85.20;94669.47;5056067;28;20202;-78
2021/12/26 07:15:52;;;;;;;7.53;6.40;;;;;;;5.91;84.65;94671.59;5074540;28;20236;-78
2021/12/26 07:18:18;;;;;;;8.60;7.07;;;;;;;5.74;86.34;94677.75;5073581;28;20233;-79
2021/12/26 07:20:45;;;;;;;7.97;7.17;;;;;;;5.61;86.44;94685.16;5070258;28;20203;-78
2021/12/26 07:23:11;;;;;;;7.63;6.83;;;;;;;5.52;86.76;94687.75;5073611;28;20708;-78
2021/12/26 07:25:38;;;;;;;7.50;6.67;;;;;;;5.43;87.58;94687.94;5074079;28;20587;-78
2021/12/26 07:28:05;;;;;;;7.73;6.73;;;;;;;5.47;87.66;94687.47;5073521;28;20363;-78
2021/12/26 07:30:32;;;;;;;9.00;7.50;;;;;;;5.53;87.52;94693.66;5055610;28;20209;-78
2021/12/26 07:32:59;;;;;;;7.80;7.00;;;;;;;5.46;87.38;94702.94;5069261;28;20204;-78
2021/12/26 07:35:25;;;;;;;7.80;7.00;;;;;;;5.46;88.18;94708.03;5071794;28;20231;-78
2021/12/26 07:37:52;;;;;;;7.90;6.80;;;;;;;5.47;88.37;94707.09;5071285;28;20228;-78
2021/12/26 07:40:20;;;;;;;8.37;7.13;;;;;;;5.47;87.89;94702.78;5058274;28;20265;-78
2021/12/26 07:42:46;;;;;;;8.43;7.53;;;;;;;5.53;88.08;94706.44;5067577;28;20205;-78
2021/12/26 07:45:14;;;;;;;7.57;6.47;;;;;;;5.51;87.87;94705.78;5063239;28;20225;-78
2021/12/26 07:47:41;;;;;;;7.97;6.80;;;;;;;5.52;88.38;94708.19;5053816;28;20424;-78
2021/12/26 07:50:08;;;;;;;8.37;7.47;;;;;;;5.47;88.04;94702.78;5067645;28;20202;-78
2021/12/26 07:52:39;;;;;;;8.90;7.60;;;;;;;5.43;87.63;94704.06;5069460;28;20204;-78
2021/12/26 07:55:10;;;;;;;8.33;7.37;;;;;;;5.48;88.18;94713.78;5064663;28;20307;-81
2021/12/26 07:57:36;;;;;;;7.50;6.80;;;;;;;5.41;88.03;94705.97;5072606;28;20224;-81
2021/12/26 08:00:05;;;;;;;7.53;6.67;;;;;;;5.32;88.80;94716.41;5060250;28;20252;-81
2021/12/26 08:02:32;;;;;;;8.47;7.27;;;;;;;5.22;89.04;94714.03;5072608;28;20197;-81
2021/12/26 08:04:59;;;;;;;7.57;6.53;;;;;;;5.19;89.12;94715.19;5071440;28;20284;-79
2021/12/26 08:07:25;;;;;;;7.60;6.73;;;;;;;5.27;89.28;94722.00;5056027;28;20230;-78
2021/12/26 08:09:52;;;;;;;8.90;7.00;;;;;;;5.29;88.28;94724.38;5053654;28;20752;-79
2021/12/26 08:12:18;;;;;;;7.67;6.80;;;;;;;5.38;87.62;94716.56;5055528;28;20189;-78
2021/12/26 08:14:45;;;;;;;8.40;7.07;;;;;;;5.39;87.84;94722.41;5071224;28;20227;-79
2021/12/26 08:17:11;;;;;;;7.67;6.87;;;;;;;5.42;87.61;94720.34;5056949;28;20233;-78
2021/12/26 08:19:40;;;;;;;8.43;7.20;;;;;;;5.50;87.45;94727.19;5063405;28;20203;-78
2021/12/26 08:22:06;;;;;;;8.23;6.93;;;;;;;5.53;87.98;94720.00;5070201;28;20287;-79
2021/12/26 08:24:33;;;;;;;8.20;6.63;;;;;;;5.57;86.09;94724.75;5069535;28;20197;-79
2021/12/26 08:26:59;;;;;;;7.80;6.80;;;;;;;5.59;85.22;94727.91;5051035;28;20237;-79
2021/12/26 08:29:26;;;;;;;7.17;6.47;;;;;;;5.57;86.17;94732.44;5053837;28;20200;-79
2021/12/26 08:31:56;;;;;;;7.53;6.20;;;;;;;5.72;86.42;94729.00;5056653;28;20673;-81
2021/12/26 08:34:23;;;;;;;7.00;6.30;;;;;;;5.80;85.36;94725.59;5070103;28;20197;-81
2021/12/26 08:36:58;;;;;;;7.53;6.77;;;;;;;5.92;85.52;94728.59;5069878;28;20220;-81
2021/12/26 08:39:26;;;;;;;7.23;6.53;;;;;;;5.94;84.28;94732.56;5071883;28;20420;-81
2021/12/26 08:41:52;;;;;;;7.27;6.57;;;;;;;5.90;84.23;94733.88;5072200;28;20200;-81
2021/12/26 08:44:19;;;;;;;7.83;7.03;;;;;;;5.84;84.48;94727.63;5072237;28;20211;-81
2021/12/26 08:46:46;;;;;;;9.10;7.27;;;;;;;5.78;85.03;94733.41;5071118;28;20270;-81
2021/12/26 08:49:13;;;;;;;7.27;6.40;;;;;;;5.85;84.92;94731.00;5071582;28;20193;-81
2021/12/26 08:51:40;;;;;;;8.93;7.30;;;;;;;5.71;85.54;94729.94;5065441;28;20291;-81
2021/12/26 08:54:08;;;;;;;7.63;6.83;;;;;;;5.80;85.51;94733.25;5064434;28;20205;-81
2021/12/26 08:56:35;;;;;;;7.37;6.60;;;;;;;5.87;84.25;94734.16;5064354;28;20604;-78
2021/12/26 08:59:01;;;;;;;7.30;6.60;;;;;;;5.98;84.42;94728.69;5051714;28;20829;-81
2021/12/26 09:01:28;;;;;;;8.17;7.10;;;;;;;6.00;84.74;94733.63;5057514;28;20202;-81
2021/12/26 09:03:55;;;;;;;7.60;6.83;;;;;;;5.89;84.46;94739.94;5063733;28;20201;-80
2021/12/26 09:06:22;;;;;;;8.33;6.43;;;;;;;5.81;85.22;94737.38;5068334;28;20254;-81
2021/12/26 09:08:49;;;;;;;8.73;6.57;;;;;;;5.80;84.77;94739.16;5067877;28;20232;-81
2021/12/26 09:11:17;;;;;;;7.37;6.67;;;;;;;5.81;84.70;94742.50;5062880;28;20200;-81
2021/12/26 09:13:44;;;;;;;7.30;6.40;;;;;;;5.88;85.50;94738.31;5072359;28;20201;-81
2021/12/26 09:16:11;;;;;;;7.10;6.40;;;;;;;5.92;84.32;94737.06;5070834;28;20243;-81
2021/12/26 09:18:37;;;;;;;7.23;6.30;;;;;;;5.97;84.31;94745.00;5055290;28;20312;-80
2021/12/26 09:21:04;;;;;;;7.33;6.63;;;;;;;5.98;83.91;94754.25;5070062;28;20201;-81
2021/12/26 09:23:31;;;;;;;7.00;6.30;;;;;;;5.90;83.68;94746.66;5063718;28;20204;-81
2021/12/26 09:25:57;;;;;;;7.07;6.33;;;;;;;5.89;84.29;94752.72;5072560;28;20213;-81
2021/12/26 09:28:28;;;;;;;6.63;5.93;;;;;;;5.81;84.62;94755.28;5062911;28;20286;-80
2021/12/26 09:30:55;;;;;;;6.50;5.80;;;;;;;5.71;85.00;94754.69;5066413;28;20247;-81
2021/12/26 09:33:21;;;;;;;7.40;6.43;;;;;;;5.81;84.98;94758.63;5068899;28;20196;-78
2021/12/26 09:35:48;;;;;;;6.70;6.00;;;;;;;5.84;85.23;94753.19;5063978;28;20228;-78
2021/12/26 09:38:14;;;;;;;6.77;6.10;;;;;;;5.78;85.62;94756.41;5092462;28;20227;-81
2021/12/26 09:40:41;;;;;;;7.77;6.47;;;;;;;5.66;86.69;94755.19;5054097;28;20351;-81
2021/12/26 09:43:09;;;;;;;6.80;6.10;;;;;;;5.57;87.26;94758.75;5054745;28;20426;-79
2021/12/26 09:45:37;;;;;;;6.37;5.70;;;;;;;5.57;88.19;94752.84;5068114;28;20219;-81
2021/12/26 09:48:03;;;;;;;8.17;6.57;;;;;;;5.61;88.84;94754.09;5059956;28;20662;-81
2021/12/26 09:50:30;;;;;;;6.37;5.77;;;;;;;5.62;86.99;94748.81;5071122;28;20194;-80
2021/12/26 09:52:57;;;;;;;6.47;5.80;;;;;;;5.94;100.00;94742.78;5069443;28;20194;-86
2021/12/26 09:55:27;;;;;;;5.83;5.23;;;;;;;6.44;95.26;94744.03;5061755;28;20296;-82
2021/12/26 09:57:53;;;;;;;5.93;5.43;;;;;;;6.68;85.70;94750.72;5070974;28;20229;-81
2021/12/26 10:00:24;;;;;;;6.00;5.20;;;;;;;6.61;82.65;94739.59;5059946;28;20202;-83
2021/12/26 10:03:11;;;;;;;10.17;5.20;;;;;;;6.66;88.75;94733.00;5057926;28;20272;-82
2021/12/26 10:06:00;;;;;;;5.90;5.30;;;;;;;6.79;84.58;94732.41;5074763;28;20739;-81
2021/12/26 10:08:27;;;;;;;5.60;5.10;;;;;;;6.69;82.14;94726.75;5080094;28;20316;-81
2021/12/26 10:11:10;;;;;;;5.50;4.97;;;;;;;6.65;82.39;94728.84;5072090;28;20213;-80
2021/12/26 10:13:42;;;;;;;5.80;5.20;;;;;;;6.67;82.32;94724.38;5055292;28;20209;-81
2021/12/26 10:16:09;;;;;;;5.97;5.03;;;;;;;6.64;83.43;94724.72;5068552;28;20231;-81
2021/12/26 10:18:39;;;;;;;5.60;5.07;;;;;;;6.55;83.61;94723.16;5058455;28;20220;-81
2021/12/26 10:21:28;;;;;;;5.83;5.23;;;;;;;6.37;84.35;94720.13;5055919;28;20224;-81
2021/12/26 10:23:56;;;;;;;5.93;5.33;;;;;;;6.41;84.37;94719.63;5065066;28;20238;-80
2021/12/26 10:26:24;;;;;;;5.77;5.17;;;;;;;6.55;84.21;94715.50;5073525;28;20584;-81
2021/12/26 10:29:15;;;;;;;5.90;5.40;;;;;;;6.63;83.52;94715.44;5057716;28;20220;-80
2021/12/26 10:31:50;;;;;;;5.90;5.30;;;;;;;6.64;83.48;94719.59;5059749;28;20201;-81
2021/12/26 10:34:21;;;;;;;5.87;5.27;;;;;;;6.65;84.52;94718.63;5068769;28;20200;-81
2021/12/26 10:36:50;;;;;;;5.93;5.33;;;;;;;6.70;84.83;94718.09;5059854;28;20224;-81
2021/12/26 10:39:19;;;;;;;6.17;5.57;;;;;;;6.77;84.68;94721.53;5055814;28;20197;-81
2021/12/26 10:41:48;;;;;;;5.97;5.37;;;;;;;6.84;83.69;94722.44;5054886;28;20194;-81
2021/12/26 10:44:24;;;;;;;6.07;5.47;;;;;;;6.94;84.80;94717.84;5063816;28;20192;-80
2021/12/26 10:46:53;;;;;;;6.43;5.17;;;;;;;6.98;83.60;94726.78;5067682;28;20468;-81
2021/12/26 10:49:41;;;;;;;6.60;6.00;;;;;;;6.91;84.40;94713.91;5071449;28;20212;-80
2021/12/26 10:52:14;;;;;;;6.20;5.60;;;;;;;6.91;85.27;94720.78;5060711;28;20198;-81
2021/12/26 10:54:44;;;;;;;6.37;5.73;;;;;;;6.88;85.50;94721.94;5070471;28;20216;-81
2021/12/26 10:57:13;;;;;;;6.77;6.07;;;;;;;6.88;85.69;94714.25;5053795;28;20711;-80
2021/12/26 10:59:44;;;;;;;6.23;5.63;;;;;;;6.90;86.44;94714.88;5064828;28;20699;-81
2021/12/26 11:02:21;;;;;;;7.03;6.20;;;;;;;6.80;87.84;94713.53;5073284;28;20204;-80
2021/12/26 11:04:58;;;;;;;6.43;5.70;;;;;;;6.72;87.00;94714.41;5065693;28;20220;-81
2021/12/26 11:07:24;;;;;;;5.97;5.30;;;;;;;6.66;87.31;94709.97;5056278;28;20299;-80
2021/12/26 11:10:09;;;;;;;6.97;6.27;;;;;;;6.79;89.04;94712.72;5063055;28;20200;-81
2021/12/26 11:12:38;;;;;;;7.17;6.40;;;;;;;6.93;88.23;94714.50;5063726;28;20190;-81
2021/12/26 11:15:06;;;;;;;8.10;6.47;;;;;;;7.09;87.13;94711.00;5060325;28;20197;-80
2021/12/26 11:17:34;;;;;;;7.03;6.20;;;;;;;7.16;86.75;94700.84;5074410;28;20236;-81
2021/12/26 11:20:02;;;;;;;7.20;6.00;;;;;;;7.21;85.86;94696.78;5071780;28;20199;-81
2021/12/26 11:22:29;;;;;;;8.73;7.87;;;;;;;7.07;86.47;94702.72;5062902;28;20219;-81
2021/12/26 11:24:57;;;;;;;9.10;6.83;;;;;;;7.13;86.81;94690.94;5072925;28;20275;-80
2021/12/26 11:27:24;;;;;;;7.27;6.57;;;;;;;7.22;86.30;94698.38;5065842;28;20286;-81
2021/12/26 11:29:52;;;;;;;8.70;7.17;;;;;;;7.30;86.00;94699.25;5069890;28;20204;-81
2021/12/26 11:32:19;;;;;;;7.67;6.87;;;;;;;7.20;85.79;94710.56;5073273;28;20208;-81
2021/12/26 11:34:46;;;;;;;8.53;6.60;;;;;;;7.14;86.67;94705.34;5065983;28;20202;-80
2021/12/26 11:37:16;;;;;;;7.93;7.13;;;;;;;7.08;87.45;94701.75;5067294;28;20239;-81
2021/12/26 11:39:44;;;;;;;9.10;8.13;;;;;;;7.08;87.85;94703.50;5061296;28;20208;-80
2021/12/26 11:42:36;;;;;;;8.47;7.57;;;;;;;6.98;88.63;94701.19;5058311;28;20785;-81